Hauptseite
METAR-TAF:

METAR-TAF

Flughäfen :

RAF Benson

Benson, England

Breite: 51-37N, Länge: 001-05W, Höhe: 63 m

Beobachtung

Neuester Wetterbericht von vor 1 Stunde und 27 Minuten, um 15:50 UTC
Wind 3 kt aus West/Nordwest
Temperatur 5°C
Luftfeuchtigkeit 75%
Luftdruck 1030 hPa
Sichtweite 10 km oder mehr

METAR: EGUB 181550Z AUTO 29003KT 9999 // NCD 05/01 Q1030

Zeit: 17:17 (17:17 UTC)

Prognose

Neuester Wetterbericht von vor 3 Stunden und 45 Minuten, um 13:32 UTC
Gültige Prognose vom 18 um 15 UTC bis 18 um 18 UTC
Wind 4 kt aus Nordwest
Sichtweite 10 km oder mehr
keine Wolken unter 1500 m und keine Kumulonimbus oder Gewitterwolken

TAF: EGUB 181332Z 1815/1818 31004KT CAVOK

Wetterbeobachtungen und Prognosen von mehr als 4000 Flughäfen (METAR und TAF Bericht).

Die verfügbaren Stationen werden durch gelbe und rote Markierungen auf der Karte dargestellt.

Führen Sie die Maus auf sie, um den Namen der Station zu sehen.

Darauf klicken, um die Beobachtung von Wetterbeobachtungen und Prognosen zu sehen.

Um die Karte zu ändern : klicken Sie auf den grünen Tasten mit einem schwarzen Kreuz Zum Vergrößern, auf den grünen Button mit einem Gedankenstrich zu verkleinern, oder auf die grünen Pfeile für benachbarte Karten.


METAR-TAF: